Time;durP1;ratioP1;P1;durP2;ratioP2;P2;SDS_P1;SDS_P2;PMS_P1;PMS_P2;Temp;Humidity;BMP_temperature;BMP_pressure;BME280_temperature;BME280_humidity;BME280_pressure;Samples;Min_cycle;Max_cycle;Signal;HPM_P1;HPM_P2
2021/03/20 00:01:49;;;;;;;12.83;9.77;;;0.80;99.90;;;;;;5072690;28;20206;-40
2021/03/20 00:04:17;;;;;;;11.80;8.50;;;0.70;99.90;;;;;;5072506;28;20257;-41
2021/03/20 00:06:48;;;;;;;12.63;9.38;;;0.70;99.90;;;;;;5072644;28;20208;-39
2021/03/20 00:09:18;;;;;;;11.63;8.53;;;0.70;99.90;;;;;;5072552;28;20306;-40
2021/03/20 00:11:48;;;;;;;13.57;9.70;;;0.70;99.90;;;;;;5072078;28;20212;-40
2021/03/20 00:14:17;;;;;;;12.00;9.53;;;0.60;99.90;;;;;;5072354;28;20221;-40
2021/03/20 00:16:45;;;;;;;13.33;8.97;;;0.60;99.90;;;;;;5072196;28;20283;-40
2021/03/20 00:19:13;;;;;;;11.82;9.35;;;0.60;99.90;;;;;;5072224;28;20211;-40
2021/03/20 00:21:40;;;;;;;11.10;9.80;;;0.60;99.90;;;;;;5072314;28;20294;-40
2021/03/20 00:24:08;;;;;;;12.95;9.73;;;0.60;99.90;;;;;;5072311;28;20635;-40
2021/03/20 00:26:36;;;;;;;11.55;9.77;;;0.50;99.90;;;;;;5072106;28;20294;-40
2021/03/20 00:29:04;;;;;;;11.43;9.30;;;0.50;99.90;;;;;;5071964;28;20669;-38
2021/03/20 00:31:31;;;;;;;12.45;9.23;;;0.50;99.90;;;;;;5071966;28;20211;-39
2021/03/20 00:33:59;;;;;;;10.82;8.60;;;0.50;99.90;;;;;;5072091;28;20209;-39
2021/03/20 00:36:26;;;;;;;11.48;9.35;;;0.50;99.90;;;;;;5072022;28;20238;-40
2021/03/20 00:39:04;;;;;;;10.83;9.00;;;0.40;99.90;;;;;;5071982;28;20211;-40
2021/03/20 00:41:31;;;;;;;10.55;8.65;;;0.50;99.90;;;;;;5071780;28;20226;-39
2021/03/20 00:43:58;;;;;;;12.67;9.80;;;0.40;99.90;;;;;;5072194;28;20668;-38
2021/03/20 00:46:26;;;;;;;13.50;8.95;;;0.40;99.90;;;;;;5072007;28;20286;-40
2021/03/20 00:48:53;;;;;;;10.38;9.00;;;0.40;99.90;;;;;;5071712;28;20261;-39
2021/03/20 00:51:20;;;;;;;13.50;9.30;;;0.40;99.90;;;;;;5071518;28;20334;-40
2021/03/20 00:53:47;;;;;;;12.75;9.77;;;0.40;99.90;;;;;;5071637;28;20283;-39
2021/03/20 00:56:14;;;;;;;12.83;10.03;;;0.40;99.90;;;;;;5071913;28;20310;-39
2021/03/20 00:58:42;;;;;;;10.27;8.47;;;0.40;99.90;;;;;;5072104;28;20222;-39
2021/03/20 01:01:10;;;;;;;12.57;8.47;;;0.40;99.90;;;;;;5071684;28;20253;-39
2021/03/20 01:03:39;;;;;;;11.73;9.35;;;0.40;99.90;;;;;;5071455;28;20215;-39
2021/03/20 01:06:07;;;;;;;10.17;8.73;;;0.40;99.90;;;;;;5071515;28;20548;-40
2021/03/20 01:08:35;;;;;;;12.07;9.23;;;0.40;99.90;;;;;;5071617;28;20238;-39
2021/03/20 01:11:03;;;;;;;10.97;8.17;;;0.40;99.90;;;;;;5071695;28;20253;-39
2021/03/20 01:13:30;;;;;;;9.68;8.68;;;0.40;99.90;;;;;;5071887;28;20290;-40
2021/03/20 01:15:58;;;;;;;12.18;8.38;;;0.50;99.90;;;;;;5071799;28;20317;-40
2021/03/20 01:18:25;;;;;;;10.93;8.90;;;0.50;99.90;;;;;;5071782;28;20203;-40
2021/03/20 01:20:53;;;;;;;9.82;7.65;;;0.50;99.90;;;;;;5053980;28;20370;-39
2021/03/20 01:23:20;;;;;;;9.90;8.43;;;0.60;99.90;;;;;;5070963;28;20257;-39
2021/03/20 01:25:47;;;;;;;11.03;8.73;;;0.70;99.90;;;;;;5071714;28;20636;-39
2021/03/20 01:28:14;;;;;;;10.50;8.90;;;0.70;99.90;;;;;;5071709;28;20636;-39
2021/03/20 01:30:43;;;;;;;9.70;8.70;;;0.70;99.90;;;;;;5071570;28;20318;-39
2021/03/20 01:33:11;;;;;;;9.20;8.17;;;0.80;99.90;;;;;;5071650;28;20211;-40
2021/03/20 01:35:40;;;;;;;9.25;7.68;;;0.80;99.90;;;;;;5071396;28;20398;-39
2021/03/20 01:38:09;;;;;;;9.97;8.33;;;0.90;99.90;;;;;;5071655;28;20207;-41
2021/03/20 01:40:40;;;;;;;9.90;8.90;;;0.80;99.90;;;;;;5071311;28;20233;-40
2021/03/20 01:43:08;;;;;;;9.00;7.87;;;0.90;99.90;;;;;;5071729;28;20286;-42
2021/03/20 01:45:37;;;;;;;8.53;7.63;;;0.90;99.90;;;;;;5071318;28;20666;-39
2021/03/20 01:48:10;;;;;;;10.02;7.68;;;0.90;99.90;;;;;;5071584;28;20221;-39
2021/03/20 01:50:41;;;;;;;9.20;8.00;;;1.00;99.90;;;;;;5071234;28;20602;-39
2021/03/20 01:53:29;;;;;;;9.13;7.83;;;1.00;99.90;;;;;;5071556;28;20286;-39
2021/03/20 01:55:57;;;;;;;11.27;8.33;;;1.00;99.90;;;;;;5071625;28;20278;-39
2021/03/20 01:58:25;;;;;;;12.53;8.67;;;1.00;99.90;;;;;;5071213;28;20298;-39
2021/03/20 02:01:01;;;;;;;9.90;8.27;;;1.00;99.90;;;;;;5071285;28;20218;-38
2021/03/20 02:03:29;;;;;;;8.37;7.57;;;1.20;99.90;;;;;;5071191;28;20269;-39
2021/03/20 02:05:56;;;;;;;8.15;7.00;;;1.20;99.90;;;;;;5071292;28;20293;-39
2021/03/20 02:08:24;;;;;;;8.77;7.83;;;1.20;99.90;;;;;;5071239;28;20298;-39
2021/03/20 02:10:55;;;;;;;8.40;7.27;;;1.20;99.90;;;;;;5071441;28;20261;-40
2021/03/20 02:13:29;;;;;;;7.22;6.47;;;1.20;99.90;;;;;;5071066;28;20215;-44
2021/03/20 02:16:01;;;;;;;9.70;7.17;;;1.30;99.90;;;;;;5071015;28;20595;-40
2021/03/20 02:18:39;;;;;;;7.97;7.10;;;1.20;99.90;;;;;;5071341;28;20348;-39
2021/03/20 02:21:19;;;;;;;8.60;6.90;;;1.20;99.90;;;;;;5071365;28;20316;-40
2021/03/20 02:24:27;;;;;;;7.88;6.60;;;1.20;99.90;;;;;;5071115;28;20666;-39
2021/03/20 02:27:44;;;;;;;7.03;5.88;;;1.10;99.90;;;;;;5071140;28;20242;-40
2021/03/20 02:30:59;;;;;;;6.03;5.43;;;1.10;99.90;;;;;;5070929;28;20203;-40
2021/03/20 02:33:34;;;;;;;6.73;5.87;;;1.10;99.90;;;;;;5070927;28;20631;-40
2021/03/20 02:36:12;;;;;;;7.85;6.68;;;1.10;99.90;;;;;;5074252;28;20776;-41
2021/03/20 02:38:45;;;;;;;7.78;6.97;;;1.00;99.90;;;;;;5074753;28;20249;-39
2021/03/20 02:41:21;;;;;;;7.70;6.25;;;1.00;99.90;;;;;;5074847;28;20643;-40
2021/03/20 02:43:55;;;;;;;6.97;5.57;;;1.00;99.90;;;;;;5074571;28;20254;-41
2021/03/20 02:46:26;;;;;;;6.63;5.87;;;0.90;99.90;;;;;;5074741;28;20243;-40
2021/03/20 02:49:02;;;;;;;6.50;5.90;;;1.00;99.90;;;;;;5074310;28;20691;-40
2021/03/20 02:51:38;;;;;;;7.27;5.80;;;1.00;99.90;;;;;;5074533;28;20207;-41
2021/03/20 02:54:09;;;;;;;7.13;5.97;;;1.00;99.90;;;;;;5074517;28;20314;-40
2021/03/20 02:56:45;;;;;;;6.55;5.70;;;1.00;99.90;;;;;;5074490;28;20333;-40
2021/03/20 02:59:14;;;;;;;6.13;5.22;;;1.00;99.90;;;;;;5074130;28;20215;-40
2021/03/20 03:01:46;;;;;;;6.80;5.70;;;1.10;99.90;;;;;;5074127;28;20289;-43
2021/03/20 03:04:19;;;;;;;6.50;5.30;;;1.10;99.90;;;;;;5074017;28;20252;-40
2021/03/20 03:06:50;;;;;;;6.23;5.63;;;1.10;99.90;;;;;;5074312;28;20227;-40
2021/03/20 03:09:21;;;;;;;5.40;4.90;;;1.10;99.90;;;;;;5074072;28;20208;-40
2021/03/20 03:11:52;;;;;;;6.90;5.27;;;1.10;99.90;;;;;;5073837;28;20307;-40
2021/03/20 03:14:27;;;;;;;7.43;6.23;;;1.00;99.90;;;;;;5074178;28;20302;-40
2021/03/20 03:16:58;;;;;;;6.70;5.90;;;1.00;99.90;;;;;;5073684;28;20649;-40
2021/03/20 03:19:33;;;;;;;6.40;5.80;;;1.00;99.90;;;;;;5073951;28;20203;-41
2021/03/20 03:22:04;;;;;;;8.10;6.13;;;0.90;99.90;;;;;;5073811;28;20238;-40
2021/03/20 03:24:33;;;;;;;7.22;6.50;;;0.90;99.90;;;;;;5073959;28;20234;-41
2021/03/20 03:27:04;;;;;;;7.57;6.10;;;0.90;99.90;;;;;;5073711;28;20295;-40
2021/03/20 03:29:34;;;;;;;8.57;6.73;;;0.90;99.90;;;;;;5073772;28;20215;-40
2021/03/20 03:32:08;;;;;;;8.17;6.40;;;0.90;99.90;;;;;;5073586;28;20305;-40
2021/03/20 03:34:48;;;;;;;8.18;6.90;;;0.90;99.90;;;;;;5073526;28;20268;-41
2021/03/20 03:37:19;;;;;;;8.80;7.20;;;0.80;99.90;;;;;;5073886;28;20265;-40
2021/03/20 03:39:51;;;;;;;8.53;6.57;;;0.90;99.90;;;;;;5073518;28;20208;-41
2021/03/20 03:42:20;;;;;;;8.73;6.97;;;0.90;99.90;;;;;;5073508;28;20314;-40
2021/03/20 03:44:49;;;;;;;7.43;6.45;;;0.90;99.90;;;;;;5073247;28;20294;-40
2021/03/20 03:47:19;;;;;;;7.30;6.60;;;0.80;99.90;;;;;;5072440;28;20294;-40
2021/03/20 03:49:47;;;;;;;8.80;6.77;;;0.90;99.90;;;;;;5073305;28;20376;-40
2021/03/20 03:52:15;;;;;;;7.63;6.67;;;0.90;99.90;;;;;;5073195;28;20294;-42
2021/03/20 03:54:42;;;;;;;7.10;6.40;;;0.90;99.90;;;;;;5072903;28;20224;-39
2021/03/20 03:57:44;;;;;;;8.60;6.93;;;0.90;99.90;;;;;;5072900;28;20318;-40
2021/03/20 04:00:19;;;;;;;8.47;7.57;;;0.90;99.90;;;;;;5059778;28;20294;-40
2021/03/20 04:03:16;;;;;;;10.33;7.83;;;0.80;99.90;;;;;;5072949;28;20225;-40
2021/03/20 04:05:54;;;;;;;8.80;7.07;;;0.80;99.90;;;;;;5069987;28;20574;-39
2021/03/20 04:08:31;;;;;;;9.03;7.57;;;0.90;99.90;;;;;;5072981;28;20234;-40
2021/03/20 04:11:02;;;;;;;8.20;6.97;;;0.90;99.90;;;;;;5073142;28;20288;-40
2021/03/20 04:13:37;;;;;;;7.20;6.37;;;0.90;99.90;;;;;;5072732;28;20295;-40
2021/03/20 04:16:07;;;;;;;8.53;7.03;;;1.00;99.90;;;;;;5072569;28;20258;-40
2021/03/20 04:18:44;;;;;;;6.17;5.57;;;1.00;99.90;;;;;;5072718;28;20658;-40
2021/03/20 04:21:23;;;;;;;5.93;5.33;;;1.00;99.90;;;;;;5072403;28;20657;-39
2021/03/20 04:24:02;;;;;;;6.10;5.37;;;0.90;99.90;;;;;;5072541;28;20250;-39
2021/03/20 04:26:36;;;;;;;8.47;6.50;;;0.80;99.90;;;;;;5072494;28;20204;-39
2021/03/20 04:29:09;;;;;;;6.83;6.13;;;0.70;99.90;;;;;;5072611;28;20203;-40
2021/03/20 04:31:41;;;;;;;5.47;4.93;;;0.60;99.90;;;;;;5072507;28;20731;-39
2021/03/20 04:34:15;;;;;;;7.40;5.67;;;0.60;99.90;;;;;;5072395;28;20294;-39
2021/03/20 04:36:47;;;;;;;5.90;5.30;;;0.70;99.90;;;;;;5072214;28;20321;-40
2021/03/20 04:39:16;;;;;;;6.37;5.20;;;0.90;99.90;;;;;;5072322;28;20243;-39
2021/03/20 04:41:49;;;;;;;6.57;5.33;;;0.90;99.90;;;;;;5072581;28;20250;-40
2021/03/20 04:44:16;;;;;;;5.43;4.93;;;1.00;99.90;;;;;;5072058;28;20286;-39
2021/03/20 04:46:53;;;;;;;7.50;4.77;;;1.00;99.90;;;;;;5072173;28;20211;-39
2021/03/20 04:49:33;;;;;;;7.95;4.95;;;1.10;99.90;;;;;;5071878;28;20212;-39
2021/03/20 04:52:07;;;;;;;4.93;4.43;;;1.10;99.90;;;;;;5072006;28;20736;-39
2021/03/20 04:54:34;;;;;;;6.15;4.38;;;1.10;99.90;;;;;;5071993;28;20246;-40
2021/03/20 04:57:11;;;;;;;5.90;4.95;;;1.00;99.90;;;;;;5071826;28;20733;-39
2021/03/20 04:59:47;;;;;;;5.23;4.70;;;1.00;99.90;;;;;;5071945;28;20210;-39
2021/03/20 05:02:20;;;;;;;5.27;4.57;;;1.00;99.90;;;;;;5071484;28;20301;-39
2021/03/20 05:04:50;;;;;;;5.33;4.83;;;0.90;99.90;;;;;;5071457;28;20739;-39
2021/03/20 05:07:19;;;;;;;6.40;4.60;;;0.80;99.90;;;;;;5071577;28;20609;-38
2021/03/20 05:09:55;;;;;;;4.97;4.43;;;0.70;99.90;;;;;;5071713;28;20290;-40
2021/03/20 05:12:32;;;;;;;7.55;5.65;;;0.70;99.90;;;;;;5071528;28;20211;-39
2021/03/20 05:15:06;;;;;;;6.33;4.67;;;0.70;99.90;;;;;;5071459;28;20210;-39
2021/03/20 05:17:33;;;;;;;5.67;4.77;;;0.60;99.90;;;;;;5071827;28;20658;-40
2021/03/20 05:20:00;;;;;;;6.18;5.47;;;0.60;99.90;;;;;;5071548;28;20211;-40
2021/03/20 05:22:30;;;;;;;5.40;4.90;;;0.60;99.90;;;;;;5071401;28;20235;-40
2021/03/20 05:24:58;;;;;;;4.70;4.30;;;0.50;99.90;;;;;;5071484;28;20257;-39
2021/03/20 05:27:27;;;;;;;4.68;4.10;;;0.40;99.90;;;;;;5071738;28;20365;-39
2021/03/20 05:29:55;;;;;;;5.20;4.70;;;0.40;99.90;;;;;;5071685;28;20298;-39
2021/03/20 05:32:26;;;;;;;7.43;5.07;;;0.40;99.90;;;;;;5071597;28;20215;-39
2021/03/20 05:34:56;;;;;;;8.00;4.93;;;0.40;99.90;;;;;;5071625;28;20207;-40
2021/03/20 05:37:26;;;;;;;5.50;4.20;;;0.30;99.90;;;;;;5071337;28;20231;-39
2021/03/20 05:39:54;;;;;;;7.40;4.23;;;0.30;99.90;;;;;;5071738;28;20211;-40
2021/03/20 05:42:36;;;;;;;5.72;4.45;;;0.30;99.90;;;;;;5071707;28;20239;-40
2021/03/20 05:45:20;;;;;;;4.73;4.33;;;0.20;99.90;;;;;;5071681;28;20282;-40
2021/03/20 05:48:04;;;;;;;4.77;4.27;;;0.20;99.90;;;;;;5071042;28;20246;-39
2021/03/20 05:50:40;;;;;;;5.33;4.60;;;0.20;99.90;;;;;;5071187;28;20245;-40
2021/03/20 05:53:28;;;;;;;5.83;4.57;;;0.20;99.90;;;;;;5071202;28;20294;-39
2021/03/20 05:55:58;;;;;;;5.70;4.43;;;0.10;99.90;;;;;;5070984;28;20287;-39
2021/03/20 05:58:44;;;;;;;5.43;4.43;;;0.10;99.90;;;;;;5071079;28;20315;-39
2021/03/20 06:01:21;;;;;;;6.80;5.00;;;0.10;99.90;;;;;;5071111;28;20313;-39
2021/03/20 06:04:29;;;;;;;5.67;5.00;;;0.20;99.90;;;;;;5071266;28;20264;-39
2021/03/20 06:07:24;;;;;;;5.63;4.90;;;0.20;99.90;;;;;;4989323;28;20630;-39
2021/03/20 06:10:03;;;;;;;7.33;4.57;;;0.30;99.90;;;;;;5070147;28;20214;-40
2021/03/20 06:12:50;;;;;;;6.17;4.10;;;0.40;99.90;;;;;;5075484;28;20299;-41
2021/03/20 06:15:33;;;;;;;5.93;4.90;;;0.40;99.90;;;;;;5075007;28;20233;-40
2021/03/20 06:18:23;;;;;;;6.27;5.67;;;0.40;99.90;;;;;;5074684;28;20235;-40
2021/03/20 06:20:54;;;;;;;5.10;4.50;;;0.50;99.90;;;;;;5074678;28;20211;-42
2021/03/20 06:23:57;;;;;;;4.33;3.93;;;0.50;99.90;;;;;;5074523;28;20337;-41
2021/03/20 06:26:28;;;;;;;4.90;4.27;;;0.50;99.90;;;;;;5013001;28;20378;-40
2021/03/20 06:28:59;;;;;;;5.43;4.50;;;0.60;99.90;;;;;;5074543;28;20212;-40
2021/03/20 06:31:29;;;;;;;6.43;5.30;;;0.60;99.90;;;;;;5074413;28;20711;-40
2021/03/20 06:34:02;;;;;;;6.10;5.33;;;0.60;99.90;;;;;;5075339;28;20215;-40
2021/03/20 06:36:36;;;;;;;6.30;5.23;;;0.60;99.90;;;;;;5074392;28;20400;-41
2021/03/20 06:39:14;;;;;;;6.87;5.27;;;0.50;99.90;;;;;;5074480;28;20215;-40
2021/03/20 06:41:45;;;;;;;5.20;4.70;;;0.50;99.90;;;;;;5074445;28;20230;-41
2021/03/20 06:44:30;;;;;;;5.10;4.43;;;0.50;99.90;;;;;;5074339;28;20222;-41
2021/03/20 06:46:57;;;;;;;6.60;5.20;;;0.50;99.90;;;;;;5074549;28;20285;-41
2021/03/20 06:49:28;;;;;;;5.00;4.50;;;0.60;99.90;;;;;;5074221;28;20219;-42
2021/03/20 06:51:57;;;;;;;5.90;4.20;;;0.60;99.90;;;;;;5074163;28;20207;-40
2021/03/20 06:54:27;;;;;;;6.50;5.90;;;0.60;99.90;;;;;;5074148;28;20207;-40
2021/03/20 06:56:54;;;;;;;5.70;5.13;;;0.50;99.90;;;;;;5074128;28;20349;-40
2021/03/20 06:59:23;;;;;;;6.60;5.40;;;0.50;99.90;;;;;;5074251;28;20262;-40
2021/03/20 07:02:00;;;;;;;7.23;5.70;;;0.70;99.90;;;;;;5074127;28;20242;-41
2021/03/20 07:04:43;;;;;;;5.10;4.60;;;0.60;99.90;;;;;;5074094;28;20516;-41
2021/03/20 07:07:30;;;;;;;5.80;5.20;;;0.60;99.90;;;;;;5073833;28;20246;-40
2021/03/20 07:09:59;;;;;;;5.67;4.47;;;0.70;99.90;;;;;;5070870;28;20243;-40
2021/03/20 07:12:27;;;;;;;4.83;4.40;;;0.80;99.90;;;;;;5073900;28;20215;-40
2021/03/20 07:15:00;;;;;;;6.67;4.67;;;0.70;99.90;;;;;;5074002;28;20666;-41
2021/03/20 07:17:34;;;;;;;5.17;4.70;;;0.80;99.90;;;;;;5073699;28;20667;-40
2021/03/20 07:20:10;;;;;;;6.23;5.17;;;0.80;99.90;;;;;;5073246;28;20765;-40
2021/03/20 07:22:40;;;;;;;5.57;4.87;;;1.00;99.90;;;;;;5073011;28;20305;-41
2021/03/20 07:25:25;;;;;;;6.73;5.37;;;1.10;99.80;;;;;;5074017;28;20215;-40
2021/03/20 07:27:56;;;;;;;4.73;4.23;;;1.30;99.70;;;;;;5073500;28;20601;-41
2021/03/20 07:30:34;;;;;;;6.47;5.70;;;1.50;99.30;;;;;;5073772;28;20318;-41
2021/03/20 07:33:17;;;;;;;7.20;4.90;;;1.50;98.90;;;;;;5073703;28;20268;-41
2021/03/20 07:35:44;;;;;;;4.65;4.25;;;1.50;98.80;;;;;;5073454;28;20227;-41
2021/03/20 07:38:21;;;;;;;5.97;5.07;;;1.60;98.70;;;;;;5073292;28;20204;-41
2021/03/20 07:40:48;;;;;;;5.53;4.80;;;1.70;98.20;;;;;;5073519;28;20203;-41
2021/03/20 07:43:19;;;;;;;5.65;5.15;;;1.70;98.40;;;;;;5073441;28;20498;-41
2021/03/20 07:45:48;;;;;;;5.00;4.50;;;1.80;98.20;;;;;;5073117;28;20681;-41
2021/03/20 07:48:22;;;;;;;6.60;5.13;;;1.80;97.80;;;;;;5073102;28;20302;-41
2021/03/20 07:51:01;;;;;;;5.37;4.60;;;1.80;97.90;;;;;;5072889;28;20240;-41
2021/03/20 07:53:28;;;;;;;5.13;4.40;;;2.00;97.40;;;;;;5073361;28;20298;-42
2021/03/20 07:56:00;;;;;;;5.90;5.05;;;2.10;97.20;;;;;;5073375;28;20319;-41
2021/03/20 07:58:40;;;;;;;5.93;5.20;;;2.20;97.10;;;;;;5073034;28;20249;-40
2021/03/20 08:01:13;;;;;;;5.63;5.03;;;2.30;96.70;;;;;;5072826;28;20261;-42
2021/03/20 08:03:53;;;;;;;6.47;5.38;;;2.30;96.60;;;;;;5072628;28;20211;-41
2021/03/20 08:06:23;;;;;;;5.18;4.70;;;2.20;96.50;;;;;;5072755;28;20230;-41
2021/03/20 08:09:09;;;;;;;5.30;4.63;;;2.10;96.70;;;;;;5072684;28;20246;-41
2021/03/20 08:11:36;;;;;;;5.37;4.73;;;2.00;96.50;;;;;;5072670;28;20634;-41
2021/03/20 08:14:09;;;;;;;4.55;4.13;;;2.10;96.70;;;;;;5073157;28;20302;-40
2021/03/20 08:16:37;;;;;;;5.30;4.80;;;2.20;96.70;;;;;;5072262;28;20227;-40
2021/03/20 08:19:12;;;;;;;5.60;4.63;;;2.30;96.80;;;;;;5072682;28;20209;-41
2021/03/20 08:22:20;;;;;;;5.93;5.33;;;2.40;96.40;;;;;;5072632;28;20207;-40
2021/03/20 08:25:09;;;;;;;11.83;5.33;;;2.50;95.80;;;;;;5032267;28;20214;-41
2021/03/20 08:27:46;;;;;;;8.38;5.45;;;2.70;95.90;;;;;;5072484;28;20289;-40
2021/03/20 08:30:46;;;;;;;6.23;5.63;;;2.90;95.70;;;;;;5072315;28;20298;-41
2021/03/20 08:33:50;;;;;;;5.43;4.93;;;3.00;95.30;;;;;;5057700;28;20295;-41
2021/03/20 08:36:30;;;;;;;5.40;4.90;;;3.10;94.80;;;;;;5072095;28;20239;-41
2021/03/20 08:39:09;;;;;;;6.57;5.87;;;3.00;95.10;;;;;;5072542;28;20278;-42
2021/03/20 08:41:53;;;;;;;6.03;5.47;;;3.10;95.10;;;;;;5072264;28;20211;-40
2021/03/20 08:44:37;;;;;;;5.97;5.10;;;3.20;95.00;;;;;;5072031;28;20250;-41
2021/03/20 08:47:31;;;;;;;5.10;4.73;;;3.30;94.80;;;;;;5072236;28;20243;-40
2021/03/20 08:50:14;;;;;;;5.93;4.83;;;3.40;94.40;;;;;;5071933;28;20246;-41
2021/03/20 08:52:51;;;;;;;7.87;4.97;;;3.30;94.50;;;;;;5071925;28;20299;-41
2021/03/20 08:55:38;;;;;;;5.83;5.33;;;3.40;94.70;;;;;;5071871;28;20233;-41
2021/03/20 08:58:19;;;;;;;6.97;5.80;;;3.40;94.60;;;;;;5072347;28;20660;-41
2021/03/20 09:00:51;;;;;;;6.20;5.07;;;3.40;94.40;;;;;;5072013;28;20242;-42
2021/03/20 09:03:21;;;;;;;7.05;5.22;;;3.30;94.30;;;;;;5071783;28;20238;-41
2021/03/20 09:05:55;;;;;;;7.40;5.80;;;3.00;94.70;;;;;;5071544;28;20211;-41
2021/03/20 09:08:29;;;;;;;5.32;4.82;;;2.90;95.00;;;;;;5071975;28;20299;-41
2021/03/20 09:11:00;;;;;;;6.30;4.72;;;2.90;94.90;;;;;;5071637;28;20389;-41
2021/03/20 09:13:31;;;;;;;6.87;6.17;;;2.80;94.50;;;;;;5071647;28;20684;-41
2021/03/20 09:16:01;;;;;;;6.10;5.55;;;2.60;94.90;;;;;;5072345;28;20722;-41
2021/03/20 09:18:30;;;;;;;8.07;7.30;;;2.50;95.00;;;;;;5071761;28;20635;-43
2021/03/20 09:21:00;;;;;;;7.38;6.47;;;2.60;95.10;;;;;;5071557;28;20241;-41
2021/03/20 09:23:31;;;;;;;7.35;6.68;;;2.80;94.90;;;;;;5071562;28;20210;-41
2021/03/20 09:26:01;;;;;;;6.57;5.80;;;2.80;94.50;;;;;;5071675;28;20211;-41
2021/03/20 09:29:11;;;;;;;5.87;5.37;;;3.00;94.60;;;;;;5071369;28;20233;-41
2021/03/20 09:31:58;;;;;;;6.45;5.80;;;3.20;93.50;;;;;;5071495;28;20690;-41
2021/03/20 09:34:32;;;;;;;7.43;6.73;;;3.40;93.70;;;;;;5071446;28;20258;-42
2021/03/20 09:37:02;;;;;;;7.03;6.33;;;3.50;93.40;;;;;;5071358;28;20227;-41
2021/03/20 09:39:40;;;;;;;7.82;7.05;;;3.80;93.30;;;;;;5071581;28;20214;-40
2021/03/20 09:42:34;;;;;;;7.00;6.30;;;4.20;92.80;;;;;;5071237;28;20264;-39
2021/03/20 09:45:04;;;;;;;5.80;5.30;;;4.60;91.70;;;;;;5071166;28;20261;-40
2021/03/20 09:47:48;;;;;;;5.82;5.32;;;4.90;91.70;;;;;;5071473;28;20336;-40
2021/03/20 09:50:34;;;;;;;5.30;4.90;;;5.10;90.80;;;;;;5070993;28;20802;-40
2021/03/20 09:53:35;;;;;;;5.20;4.77;;;5.20;90.50;;;;;;5071383;28;20207;-40
2021/03/20 09:56:29;;;;;;;6.88;5.85;;;5.30;89.90;;;;;;5071007;28;20215;-40
2021/03/20 09:58:59;;;;;;;5.93;5.43;;;5.30;89.70;;;;;;5071152;28;20294;-40
2021/03/20 10:01:47;;;;;;;5.40;4.88;;;5.10;88.90;;;;;;5071202;28;20673;-39
2021/03/20 10:04:28;;;;;;;5.35;4.85;;;4.80;89.80;;;;;;5070888;28;20218;-40
2021/03/20 10:07:32;;;;;;;4.40;4.00;;;4.70;90.20;;;;;;5071187;28;20634;-40
2021/03/20 10:10:28;;;;;;;5.50;4.03;;;4.90;90.00;;;;;;5070900;28;20718;-40
2021/03/20 10:13:11;;;;;;;5.33;4.87;;;4.90;89.30;;;;;;5070811;28;20299;-40
2021/03/20 10:15:54;;;;;;;5.60;4.90;;;4.90;88.50;;;;;;5071049;28;20721;-40
2021/03/20 10:18:43;;;;;;;5.43;4.43;;;4.80;89.20;;;;;;5071060;28;20204;-40
2021/03/20 10:21:20;;;;;;;4.47;4.17;;;4.70;89.10;;;;;;5071128;28;20600;-41
2021/03/20 10:23:53;;;;;;;6.47;4.10;;;4.60;87.40;;;;;;5071016;28;20207;-40
2021/03/20 10:26:26;;;;;;;5.03;4.63;;;4.40;88.00;;;;;;5070854;28;20298;-39
2021/03/20 10:28:56;;;;;;;4.38;3.95;;;4.30;89.10;;;;;;5070972;28;20696;-39
2021/03/20 10:31:26;;;;;;;8.43;4.63;;;4.30;89.20;;;;;;5070931;28;20745;-40
2021/03/20 10:34:04;;;;;;;6.10;5.53;;;4.30;88.70;;;;;;5071118;28;20207;-41
2021/03/20 10:36:34;;;;;;;5.60;5.10;;;4.40;88.90;;;;;;5071133;28;20314;-42
2021/03/20 10:39:21;;;;;;;5.47;4.82;;;4.30;87.90;;;;;;5070677;28;20290;-41
2021/03/20 10:41:49;;;;;;;5.37;4.97;;;4.00;89.40;;;;;;5070399;28;20249;-41
2021/03/20 10:44:20;;;;;;;6.13;5.60;;;3.70;90.40;;;;;;5070961;28;20349;-41
2021/03/20 10:47:00;;;;;;;4.93;4.63;;;3.40;90.80;;;;;;5070694;28;20243;-41
2021/03/20 10:49:27;;;;;;;6.85;5.95;;;3.20;91.20;;;;;;5070417;28;20570;-41
2021/03/20 10:51:57;;;;;;;5.90;5.40;;;3.00;91.30;;;;;;5070428;28;20682;-41
2021/03/20 10:54:31;;;;;;;6.40;5.33;;;2.90;91.70;;;;;;5070673;28;20226;-41
2021/03/20 10:57:03;;;;;;;5.30;4.80;;;2.80;91.20;;;;;;5073894;28;20323;-41
2021/03/20 10:59:35;;;;;;;5.20;4.70;;;2.80;91.40;;;;;;5074037;28;20233;-41
2021/03/20 11:02:23;;;;;;;5.57;4.28;;;3.00;91.10;;;;;;5074067;28;20211;-41
2021/03/20 11:04:52;;;;;;;4.37;3.97;;;3.20;90.20;;;;;;5073870;28;20448;-41
2021/03/20 11:07:22;;;;;;;4.60;4.30;;;3.20;90.80;;;;;;5074085;28;20208;-40
2021/03/20 11:09:50;;;;;;;4.72;3.80;;;3.40;90.20;;;;;;5073823;28;20650;-40
2021/03/20 11:12:26;;;;;;;4.93;4.53;;;3.50;89.40;;;;;;5073575;28;20245;-40
2021/03/20 11:14:56;;;;;;;5.57;5.07;;;3.70;89.00;;;;;;5073561;28;20360;-39
2021/03/20 11:17:25;;;;;;;5.10;4.57;;;3.70;89.10;;;;;;5073978;28;20234;-40
2021/03/20 11:20:00;;;;;;;10.43;7.75;;;3.70;89.40;;;;;;5074615;28;20207;-39
2021/03/20 11:22:39;;;;;;;5.07;4.57;;;3.60;89.30;;;;;;5073557;28;20211;-39
2021/03/20 11:25:11;;;;;;;6.50;5.22;;;3.50;90.00;;;;;;5073619;28;20235;-39
2021/03/20 11:27:40;;;;;;;5.22;4.15;;;3.60;90.10;;;;;;5073427;28;20265;-39
2021/03/20 11:30:15;;;;;;;6.00;4.43;;;3.90;89.70;;;;;;5073174;28;20673;-39
2021/03/20 11:32:45;;;;;;;4.87;4.40;;;4.30;88.30;;;;;;5073366;28;20237;-40
2021/03/20 11:35:18;;;;;;;4.07;3.58;;;4.80;86.50;;;;;;5073332;28;20218;-39
2021/03/20 11:37:46;;;;;;;6.85;4.10;;;5.10;83.40;;;;;;5073110;28;20341;-38
2021/03/20 11:40:24;;;;;;;4.87;4.13;;;5.20;82.40;;;;;;5073263;28;20235;-40
2021/03/20 11:42:54;;;;;;;5.93;4.20;;;5.10;79.70;;;;;;5073376;28;20318;-40
2021/03/20 11:45:27;;;;;;;4.57;4.18;;;5.00;82.00;;;;;;5073151;28;20204;-42
2021/03/20 11:47:57;;;;;;;5.65;4.03;;;5.00;82.30;;;;;;5073028;28;20261;-40
2021/03/20 11:50:27;;;;;;;6.57;5.18;;;5.00;82.40;;;;;;5072635;28;20243;-41
2021/03/20 11:52:56;;;;;;;4.45;4.00;;;5.00;82.40;;;;;;5073072;28;20235;-40
2021/03/20 11:55:33;;;;;;;6.20;5.60;;;4.80;82.40;;;;;;5072855;28;20290;-41
2021/03/20 11:58:05;;;;;;;7.82;5.38;;;4.70;83.10;;;;;;5072854;28;20257;-41
2021/03/20 12:00:40;;;;;;;4.53;4.10;;;4.80;83.10;;;;;;5072830;28;20207;-40
2021/03/20 12:03:28;;;;;;;6.22;3.65;;;4.80;81.80;;;;;;5072782;28;20214;-41
2021/03/20 12:06:20;;;;;;;4.68;4.10;;;4.70;81.10;;;;;;5072996;28;20215;-40
2021/03/20 12:08:48;;;;;;;4.10;3.70;;;4.70;82.10;;;;;;5072337;28;20203;-41
2021/03/20 12:11:17;;;;;;;4.27;3.87;;;4.70;81.10;;;;;;5073651;28;20257;-41
2021/03/20 12:13:47;;;;;;;5.47;4.40;;;4.70;81.90;;;;;;5074452;28;20579;-40
2021/03/20 12:16:36;;;;;;;4.23;3.83;;;5.00;80.70;;;;;;5072481;28;20207;-39
2021/03/20 12:19:11;;;;;;;3.93;3.60;;;5.30;74.50;;;;;;5072525;28;20258;-40
2021/03/20 12:22:00;;;;;;;6.95;4.78;;;5.40;76.70;;;;;;5072155;28;20211;-40
2021/03/20 12:24:34;;;;;;;4.15;3.75;;;5.60;77.50;;;;;;5072609;28;20525;-40
2021/03/20 12:27:25;;;;;;;4.05;3.63;;;5.90;76.00;;;;;;5072300;28;20217;-40
2021/03/20 12:29:56;;;;;;;4.57;3.65;;;6.10;74.60;;;;;;5072311;28;20246;-40
2021/03/20 12:32:39;;;;;;;3.80;3.47;;;6.10;75.90;;;;;;5072423;28;20253;-40
2021/03/20 12:35:32;;;;;;;3.67;3.38;;;6.10;73.90;;;;;;5072458;28;20218;-40
2021/03/20 12:38:17;;;;;;;3.53;3.20;;;6.20;72.80;;;;;;5072001;28;20278;-39
2021/03/20 12:40:53;;;;;;;3.90;3.60;;;6.50;72.60;;;;;;5071884;28;20250;-40
2021/03/20 12:43:31;;;;;;;3.97;3.60;;;6.80;71.80;;;;;;5072091;28;20268;-40
2021/03/20 12:46:01;;;;;;;4.63;3.88;;;6.90;70.60;;;;;;5071891;28;20207;-40
2021/03/20 12:48:29;;;;;;;3.53;3.22;;;6.70;70.60;;;;;;5071609;28;20576;-40
2021/03/20 12:50:58;;;;;;;3.70;3.40;;;6.50;70.70;;;;;;5071148;28;20658;-40
2021/03/20 12:53:25;;;;;;;5.05;3.65;;;6.30;70.40;;;;;;5071373;28;20587;-39
2021/03/20 12:55:52;;;;;;;4.63;3.58;;;6.20;71.30;;;;;;5071753;28;20275;-40
2021/03/20 12:58:19;;;;;;;4.68;3.88;;;6.00;72.00;;;;;;5071630;28;20231;-40
2021/03/20 13:00:46;;;;;;;3.80;3.50;;;6.00;72.30;;;;;;5071850;28;20271;-40
2021/03/20 13:03:13;;;;;;;4.25;3.95;;;5.90;72.00;;;;;;5071593;28;20211;-40
2021/03/20 13:05:43;;;;;;;4.85;3.75;;;5.80;71.50;;;;;;5071633;28;20203;-40
2021/03/20 13:08:11;;;;;;;4.22;3.53;;;5.60;71.60;;;;;;5071419;28;20652;-40
2021/03/20 13:10:39;;;;;;;4.45;3.88;;;5.40;72.10;;;;;;5071915;28;20242;-40
2021/03/20 13:13:07;;;;;;;4.32;3.92;;;5.40;72.30;;;;;;5071773;28;20569;-40
2021/03/20 13:15:34;;;;;;;4.05;3.67;;;5.60;72.10;;;;;;5071624;28;20210;-40
2021/03/20 13:18:01;;;;;;;4.00;3.70;;;5.80;71.40;;;;;;5071238;28;20276;-40
2021/03/20 13:20:44;;;;;;;4.07;3.50;;;6.00;70.50;;;;;;5071397;28;20203;-40
2021/03/20 13:23:13;;;;;;;5.43;3.83;;;6.20;69.90;;;;;;5071436;28;20214;-40
2021/03/20 13:25:41;;;;;;;5.63;3.50;;;6.40;68.30;;;;;;5071155;28;20204;-40
2021/03/20 13:28:10;;;;;;;4.88;3.05;;;6.60;67.80;;;;;;5071053;28;20261;-39
2021/03/20 13:30:39;;;;;;;4.95;3.78;;;6.50;67.80;;;;;;5071153;28;20297;-39
2021/03/20 13:33:07;;;;;;;4.65;3.33;;;6.60;67.30;;;;;;5071707;28;20313;-39
2021/03/20 13:35:36;;;;;;;4.28;3.38;;;6.70;67.10;;;;;;5072354;28;20216;-39